sensor_id;sensor_type;location;lat;lon;timestamp;temperature;humidity
13446;DHT22;6795;51.232;3.764;2023-09-12T00:00:01;18.80;99.90
13446;DHT22;6795;51.232;3.764;2023-09-12T00:02:32;18.80;99.90
13446;DHT22;6795;51.232;3.764;2023-09-12T00:05:01;18.70;99.90
13446;DHT22;6795;51.232;3.764;2023-09-12T00:07:30;18.60;99.90
13446;DHT22;6795;51.232;3.764;2023-09-12T00:10:00;18.50;99.90
13446;DHT22;6795;51.232;3.764;2023-09-12T00:12:29;18.50;99.90
13446;DHT22;6795;51.232;3.764;2023-09-12T00:14:57;18.60;99.90
13446;DHT22;6795;51.232;3.764;2023-09-12T00:17:26;18.50;99.90
13446;DHT22;6795;51.232;3.764;2023-09-12T00:19:55;18.50;99.90
13446;DHT22;6795;51.232;3.764;2023-09-12T00:22:23;18.40;99.90
13446;DHT22;6795;51.232;3.764;2023-09-12T00:24:52;18.40;99.90
13446;DHT22;6795;51.232;3.764;2023-09-12T00:27:21;18.30;99.90
13446;DHT22;6795;51.232;3.764;2023-09-12T00:29:50;18.30;99.90
13446;DHT22;6795;51.232;3.764;2023-09-12T00:32:19;18.20;99.90
13446;DHT22;6795;51.232;3.764;2023-09-12T00:34:47;18.10;99.90
13446;DHT22;6795;51.232;3.764;2023-09-12T00:37:16;18.10;99.90
13446;DHT22;6795;51.232;3.764;2023-09-12T00:39:44;18.00;99.90
13446;DHT22;6795;51.232;3.764;2023-09-12T00:42:14;18.00;99.90
13446;DHT22;6795;51.232;3.764;2023-09-12T00:44:44;18.00;99.90
13446;DHT22;6795;51.232;3.764;2023-09-12T00:47:13;18.00;99.90
13446;DHT22;6795;51.232;3.764;2023-09-12T00:49:43;18.00;99.90
13446;DHT22;6795;51.232;3.764;2023-09-12T00:52:17;17.90;99.90
13446;DHT22;6795;51.232;3.764;2023-09-12T00:54:46;17.70;99.90
13446;DHT22;6795;51.232;3.764;2023-09-12T00:57:15;17.70;99.90
13446;DHT22;6795;51.232;3.764;2023-09-12T00:59:44;17.60;99.90
13446;DHT22;6795;51.232;3.764;2023-09-12T01:02:13;17.60;99.90
13446;DHT22;6795;51.232;3.764;2023-09-12T01:04:42;17.60;99.90
13446;DHT22;6795;51.232;3.764;2023-09-12T01:07:11;17.50;99.90
13446;DHT22;6795;51.232;3.764;2023-09-12T01:09:40;17.60;99.90
13446;DHT22;6795;51.232;3.764;2023-09-12T01:12:08;17.60;99.90
13446;DHT22;6795;51.232;3.764;2023-09-12T01:14:41;17.60;99.90
13446;DHT22;6795;51.232;3.764;2023-09-12T01:17:11;17.70;99.90
13446;DHT22;6795;51.232;3.764;2023-09-12T01:19:40;17.60;99.90
13446;DHT22;6795;51.232;3.764;2023-09-12T01:22:49;17.70;99.90
13446;DHT22;6795;51.232;3.764;2023-09-12T01:25:40;17.80;99.90
13446;DHT22;6795;51.232;3.764;2023-09-12T01:28:12;17.80;99.90
13446;DHT22;6795;51.232;3.764;2023-09-12T01:30:43;17.80;99.90
13446;DHT22;6795;51.232;3.764;2023-09-12T01:33:13;17.80;99.90
13446;DHT22;6795;51.232;3.764;2023-09-12T01:35:42;17.80;99.90
13446;DHT22;6795;51.232;3.764;2023-09-12T01:38:13;17.80;99.90
13446;DHT22;6795;51.232;3.764;2023-09-12T01:40:45;17.80;99.90
13446;DHT22;6795;51.232;3.764;2023-09-12T01:43:17;17.80;99.90
13446;DHT22;6795;51.232;3.764;2023-09-12T01:45:48;17.80;99.90
13446;DHT22;6795;51.232;3.764;2023-09-12T01:48:19;17.80;99.90
13446;DHT22;6795;51.232;3.764;2023-09-12T01:50:49;17.80;99.90
13446;DHT22;6795;51.232;3.764;2023-09-12T01:53:19;17.80;99.90
13446;DHT22;6795;51.232;3.764;2023-09-12T01:55:47;17.80;99.90
13446;DHT22;6795;51.232;3.764;2023-09-12T01:58:17;17.80;99.90
13446;DHT22;6795;51.232;3.764;2023-09-12T02:00:46;17.70;99.90
13446;DHT22;6795;51.232;3.764;2023-09-12T02:03:15;17.80;99.90
13446;DHT22;6795;51.232;3.764;2023-09-12T02:05:43;17.80;99.90
13446;DHT22;6795;51.232;3.764;2023-09-12T02:08:12;17.80;99.90
13446;DHT22;6795;51.232;3.764;2023-09-12T02:10:40;17.80;99.90
13446;DHT22;6795;51.232;3.764;2023-09-12T02:13:09;17.80;99.90
13446;DHT22;6795;51.232;3.764;2023-09-12T02:15:39;17.80;99.90
13446;DHT22;6795;51.232;3.764;2023-09-12T02:18:07;17.80;99.90
13446;DHT22;6795;51.232;3.764;2023-09-12T02:20:38;17.70;99.90
13446;DHT22;6795;51.232;3.764;2023-09-12T02:23:07;17.70;99.90
13446;DHT22;6795;51.232;3.764;2023-09-12T02:25:35;17.80;99.90
13446;DHT22;6795;51.232;3.764;2023-09-12T02:28:05;17.80;99.90
13446;DHT22;6795;51.232;3.764;2023-09-12T02:30:33;17.80;99.90
13446;DHT22;6795;51.232;3.764;2023-09-12T02:33:04;17.80;99.90
13446;DHT22;6795;51.232;3.764;2023-09-12T02:35:32;17.70;99.90
13446;DHT22;6795;51.232;3.764;2023-09-12T02:38:01;17.80;99.90
13446;DHT22;6795;51.232;3.764;2023-09-12T02:40:29;17.80;99.90
13446;DHT22;6795;51.232;3.764;2023-09-12T02:42:58;17.70;99.90
13446;DHT22;6795;51.232;3.764;2023-09-12T02:45:26;17.70;99.90
13446;DHT22;6795;51.232;3.764;2023-09-12T02:47:55;17.70;99.90
13446;DHT22;6795;51.232;3.764;2023-09-12T02:50:24;17.70;99.90
13446;DHT22;6795;51.232;3.764;2023-09-12T02:52:53;17.80;99.90
13446;DHT22;6795;51.232;3.764;2023-09-12T02:55:21;17.70;99.90
13446;DHT22;6795;51.232;3.764;2023-09-12T02:57:49;17.70;99.90
13446;DHT22;6795;51.232;3.764;2023-09-12T03:00:19;17.70;99.90
13446;DHT22;6795;51.232;3.764;2023-09-12T03:02:48;17.70;99.90
13446;DHT22;6795;51.232;3.764;2023-09-12T03:05:16;17.70;99.90
13446;DHT22;6795;51.232;3.764;2023-09-12T03:07:46;17.70;99.90
13446;DHT22;6795;51.232;3.764;2023-09-12T03:10:15;17.70;99.90
13446;DHT22;6795;51.232;3.764;2023-09-12T03:12:43;17.70;99.90
13446;DHT22;6795;51.232;3.764;2023-09-12T03:15:12;17.60;99.90
13446;DHT22;6795;51.232;3.764;2023-09-12T03:17:40;17.60;99.90
13446;DHT22;6795;51.232;3.764;2023-09-12T03:20:10;17.70;99.90
13446;DHT22;6795;51.232;3.764;2023-09-12T03:22:38;17.60;99.90
13446;DHT22;6795;51.232;3.764;2023-09-12T03:25:09;17.60;99.90
13446;DHT22;6795;51.232;3.764;2023-09-12T03:27:37;17.60;99.90
13446;DHT22;6795;51.232;3.764;2023-09-12T03:30:06;17.60;99.90
13446;DHT22;6795;51.232;3.764;2023-09-12T03:32:35;17.70;99.90
13446;DHT22;6795;51.232;3.764;2023-09-12T03:35:04;17.70;99.90
13446;DHT22;6795;51.232;3.764;2023-09-12T03:37:33;17.70;99.90
13446;DHT22;6795;51.232;3.764;2023-09-12T03:40:01;17.70;99.90
13446;DHT22;6795;51.232;3.764;2023-09-12T03:42:33;17.80;99.90
13446;DHT22;6795;51.232;3.764;2023-09-12T03:45:09;17.70;99.90
13446;DHT22;6795;51.232;3.764;2023-09-12T03:47:38;17.70;99.90
13446;DHT22;6795;51.232;3.764;2023-09-12T03:50:07;17.70;99.90
13446;DHT22;6795;51.232;3.764;2023-09-12T03:52:35;17.70;99.90
13446;DHT22;6795;51.232;3.764;2023-09-12T03:55:04;17.70;99.90
13446;DHT22;6795;51.232;3.764;2023-09-12T03:57:34;17.80;99.90
13446;DHT22;6795;51.232;3.764;2023-09-12T04:00:04;17.80;99.90
13446;DHT22;6795;51.232;3.764;2023-09-12T04:02:32;17.70;99.90
13446;DHT22;6795;51.232;3.764;2023-09-12T04:05:01;17.70;99.90
13446;DHT22;6795;51.232;3.764;2023-09-12T04:07:29;17.80;99.90
13446;DHT22;6795;51.232;3.764;2023-09-12T04:09:58;17.80;99.90
13446;DHT22;6795;51.232;3.764;2023-09-12T04:12:26;17.80;99.90
13446;DHT22;6795;51.232;3.764;2023-09-12T04:14:56;17.80;99.90
13446;DHT22;6795;51.232;3.764;2023-09-12T04:17:24;17.80;99.90
13446;DHT22;6795;51.232;3.764;2023-09-12T04:19:53;17.80;99.90
13446;DHT22;6795;51.232;3.764;2023-09-12T04:22:21;17.90;99.90
13446;DHT22;6795;51.232;3.764;2023-09-12T04:24:50;17.80;99.90
13446;DHT22;6795;51.232;3.764;2023-09-12T04:27:18;17.80;99.90
13446;DHT22;6795;51.232;3.764;2023-09-12T04:29:47;17.80;99.90
13446;DHT22;6795;51.232;3.764;2023-09-12T04:32:19;17.80;99.90
13446;DHT22;6795;51.232;3.764;2023-09-12T04:34:50;17.80;99.90
13446;DHT22;6795;51.232;3.764;2023-09-12T04:37:19;17.80;99.90
13446;DHT22;6795;51.232;3.764;2023-09-12T04:39:48;17.80;99.90
13446;DHT22;6795;51.232;3.764;2023-09-12T04:42:17;17.80;99.90
13446;DHT22;6795;51.232;3.764;2023-09-12T04:44:45;17.80;99.90
13446;DHT22;6795;51.232;3.764;2023-09-12T04:47:13;17.80;99.90
13446;DHT22;6795;51.232;3.764;2023-09-12T04:49:44;17.80;99.90
13446;DHT22;6795;51.232;3.764;2023-09-12T04:52:12;17.90;99.90
13446;DHT22;6795;51.232;3.764;2023-09-12T04:54:40;17.80;99.90
13446;DHT22;6795;51.232;3.764;2023-09-12T04:57:09;17.80;99.90
13446;DHT22;6795;51.232;3.764;2023-09-12T04:59:37;17.80;99.90
13446;DHT22;6795;51.232;3.764;2023-09-12T05:02:06;17.80;99.90
13446;DHT22;6795;51.232;3.764;2023-09-12T05:04:35;17.80;99.90
13446;DHT22;6795;51.232;3.764;2023-09-12T05:07:05;17.80;99.90
13446;DHT22;6795;51.232;3.764;2023-09-12T05:09:33;17.80;99.90
13446;DHT22;6795;51.232;3.764;2023-09-12T05:12:01;17.80;99.90
13446;DHT22;6795;51.232;3.764;2023-09-12T05:14:30;17.80;99.90
13446;DHT22;6795;51.232;3.764;2023-09-12T05:16:58;17.90;99.90
13446;DHT22;6795;51.232;3.764;2023-09-12T05:19:30;17.90;99.90
13446;DHT22;6795;51.232;3.764;2023-09-12T05:21:59;17.90;99.90
13446;DHT22;6795;51.232;3.764;2023-09-12T05:24:28;17.90;99.90
13446;DHT22;6795;51.232;3.764;2023-09-12T05:26:57;17.90;99.90
13446;DHT22;6795;51.232;3.764;2023-09-12T05:29:25;17.90;99.90
13446;DHT22;6795;51.232;3.764;2023-09-12T05:31:54;17.90;99.90
13446;DHT22;6795;51.232;3.764;2023-09-12T05:34:22;17.90;99.90
13446;DHT22;6795;51.232;3.764;2023-09-12T05:36:51;17.80;99.90
13446;DHT22;6795;51.232;3.764;2023-09-12T05:39:19;17.80;99.90
13446;DHT22;6795;51.232;3.764;2023-09-12T05:41:49;17.80;99.90
13446;DHT22;6795;51.232;3.764;2023-09-12T05:44:18;17.80;99.90
13446;DHT22;6795;51.232;3.764;2023-09-12T05:46:46;17.80;99.90
13446;DHT22;6795;51.232;3.764;2023-09-12T05:49:15;17.80;99.90
13446;DHT22;6795;51.232;3.764;2023-09-12T05:51:44;17.80;99.90
13446;DHT22;6795;51.232;3.764;2023-09-12T05:54:12;17.90;99.90
13446;DHT22;6795;51.232;3.764;2023-09-12T05:56:41;17.90;99.90
13446;DHT22;6795;51.232;3.764;2023-09-12T05:59:11;17.90;99.90
13446;DHT22;6795;51.232;3.764;2023-09-12T06:01:40;17.90;99.90
13446;DHT22;6795;51.232;3.764;2023-09-12T06:04:08;18.00;99.90
13446;DHT22;6795;51.232;3.764;2023-09-12T06:06:37;18.00;99.90
13446;DHT22;6795;51.232;3.764;2023-09-12T06:09:06;18.00;99.90
13446;DHT22;6795;51.232;3.764;2023-09-12T06:11:36;18.00;99.90
13446;DHT22;6795;51.232;3.764;2023-09-12T06:14:04;18.10;99.90
13446;DHT22;6795;51.232;3.764;2023-09-12T06:16:34;18.00;99.90
13446;DHT22;6795;51.232;3.764;2023-09-12T06:19:02;18.10;99.90
13446;DHT22;6795;51.232;3.764;2023-09-12T06:21:31;18.10;99.90
13446;DHT22;6795;51.232;3.764;2023-09-12T06:24:09;18.10;99.90
13446;DHT22;6795;51.232;3.764;2023-09-12T06:26:39;18.20;99.90
13446;DHT22;6795;51.232;3.764;2023-09-12T06:29:08;18.30;99.90
13446;DHT22;6795;51.232;3.764;2023-09-12T06:31:37;18.30;99.90
13446;DHT22;6795;51.232;3.764;2023-09-12T06:34:08;18.20;99.90
13446;DHT22;6795;51.232;3.764;2023-09-12T06:36:38;18.20;99.90
13446;DHT22;6795;51.232;3.764;2023-09-12T06:39:08;18.20;99.90
13446;DHT22;6795;51.232;3.764;2023-09-12T06:41:37;18.20;99.90
13446;DHT22;6795;51.232;3.764;2023-09-12T06:44:05;18.10;99.90
13446;DHT22;6795;51.232;3.764;2023-09-12T06:46:34;18.20;99.90
13446;DHT22;6795;51.232;3.764;2023-09-12T06:49:06;18.20;99.90
13446;DHT22;6795;51.232;3.764;2023-09-12T06:51:34;18.30;99.90
13446;DHT22;6795;51.232;3.764;2023-09-12T06:54:05;18.40;99.90
13446;DHT22;6795;51.232;3.764;2023-09-12T06:56:33;18.40;99.90
13446;DHT22;6795;51.232;3.764;2023-09-12T06:59:07;18.50;99.90
13446;DHT22;6795;51.232;3.764;2023-09-12T07:01:36;18.50;99.90
13446;DHT22;6795;51.232;3.764;2023-09-12T07:04:06;18.50;99.90
13446;DHT22;6795;51.232;3.764;2023-09-12T07:06:34;18.50;99.90
13446;DHT22;6795;51.232;3.764;2023-09-12T07:09:03;18.40;99.90
13446;DHT22;6795;51.232;3.764;2023-09-12T07:11:32;18.50;99.90
13446;DHT22;6795;51.232;3.764;2023-09-12T07:14:00;18.50;99.90
13446;DHT22;6795;51.232;3.764;2023-09-12T07:16:33;18.60;99.90
13446;DHT22;6795;51.232;3.764;2023-09-12T07:19:01;18.80;99.90
13446;DHT22;6795;51.232;3.764;2023-09-12T07:21:32;18.70;99.90
13446;DHT22;6795;51.232;3.764;2023-09-12T07:24:01;18.80;99.90
13446;DHT22;6795;51.232;3.764;2023-09-12T07:26:29;18.90;99.90
13446;DHT22;6795;51.232;3.764;2023-09-12T07:28:58;19.10;99.90
13446;DHT22;6795;51.232;3.764;2023-09-12T07:31:29;19.00;99.90
13446;DHT22;6795;51.232;3.764;2023-09-12T07:33:58;18.90;99.90
13446;DHT22;6795;51.232;3.764;2023-09-12T07:36:26;18.90;99.90
13446;DHT22;6795;51.232;3.764;2023-09-12T07:38:56;19.00;99.90
13446;DHT22;6795;51.232;3.764;2023-09-12T07:41:24;19.10;99.90
13446;DHT22;6795;51.232;3.764;2023-09-12T07:43:53;18.90;99.90
13446;DHT22;6795;51.232;3.764;2023-09-12T07:46:21;18.90;99.90
13446;DHT22;6795;51.232;3.764;2023-09-12T07:48:50;18.80;99.90
13446;DHT22;6795;51.232;3.764;2023-09-12T07:51:19;18.80;99.90
13446;DHT22;6795;51.232;3.764;2023-09-12T07:53:50;18.80;99.90
13446;DHT22;6795;51.232;3.764;2023-09-12T07:56:20;18.80;99.90
13446;DHT22;6795;51.232;3.764;2023-09-12T07:58:48;18.90;99.90
13446;DHT22;6795;51.232;3.764;2023-09-12T08:01:17;18.80;99.90
13446;DHT22;6795;51.232;3.764;2023-09-12T08:03:46;18.90;99.90
13446;DHT22;6795;51.232;3.764;2023-09-12T08:06:16;19.00;99.90
13446;DHT22;6795;51.232;3.764;2023-09-12T08:08:44;19.20;99.90
13446;DHT22;6795;51.232;3.764;2023-09-12T08:11:13;19.30;99.90
13446;DHT22;6795;51.232;3.764;2023-09-12T08:13:43;19.20;99.90
13446;DHT22;6795;51.232;3.764;2023-09-12T08:16:14;19.20;99.90
13446;DHT22;6795;51.232;3.764;2023-09-12T08:18:42;19.00;99.90
13446;DHT22;6795;51.232;3.764;2023-09-12T08:21:11;19.00;99.90
13446;DHT22;6795;51.232;3.764;2023-09-12T08:23:39;19.00;99.90
13446;DHT22;6795;51.232;3.764;2023-09-12T08:26:09;19.10;99.90
13446;DHT22;6795;51.232;3.764;2023-09-12T08:28:38;19.10;99.90
13446;DHT22;6795;51.232;3.764;2023-09-12T08:31:08;19.20;99.90
13446;DHT22;6795;51.232;3.764;2023-09-12T08:33:36;19.30;99.90
13446;DHT22;6795;51.232;3.764;2023-09-12T08:36:05;19.20;99.90
13446;DHT22;6795;51.232;3.764;2023-09-12T08:38:33;19.30;99.90
13446;DHT22;6795;51.232;3.764;2023-09-12T08:41:06;19.40;99.90
13446;DHT22;6795;51.232;3.764;2023-09-12T08:43:34;19.50;99.90
13446;DHT22;6795;51.232;3.764;2023-09-12T08:46:04;19.50;99.90
13446;DHT22;6795;51.232;3.764;2023-09-12T08:48:35;19.60;99.90
13446;DHT22;6795;51.232;3.764;2023-09-12T08:51:06;19.60;99.90
13446;DHT22;6795;51.232;3.764;2023-09-12T08:53:36;19.70;99.90
13446;DHT22;6795;51.232;3.764;2023-09-12T08:56:04;19.80;99.90
13446;DHT22;6795;51.232;3.764;2023-09-12T08:58:33;19.70;99.90
13446;DHT22;6795;51.232;3.764;2023-09-12T09:01:02;19.70;99.90
13446;DHT22;6795;51.232;3.764;2023-09-12T09:03:31;19.60;99.90
13446;DHT22;6795;51.232;3.764;2023-09-12T09:06:02;19.70;99.90
13446;DHT22;6795;51.232;3.764;2023-09-12T09:08:31;19.70;99.90
13446;DHT22;6795;51.232;3.764;2023-09-12T09:11:01;19.90;99.90
13446;DHT22;6795;51.232;3.764;2023-09-12T09:13:30;20.20;99.90
13446;DHT22;6795;51.232;3.764;2023-09-12T09:16:12;20.30;99.90
13446;DHT22;6795;51.232;3.764;2023-09-12T09:18:52;20.50;99.90
13446;DHT22;6795;51.232;3.764;2023-09-12T09:21:23;20.60;99.90
13446;DHT22;6795;51.232;3.764;2023-09-12T09:23:54;20.70;99.90
13446;DHT22;6795;51.232;3.764;2023-09-12T09:26:23;20.50;99.90
13446;DHT22;6795;51.232;3.764;2023-09-12T09:29:06;20.50;99.90
13446;DHT22;6795;51.232;3.764;2023-09-12T09:31:40;20.40;99.90
13446;DHT22;6795;51.232;3.764;2023-09-12T09:34:13;20.40;99.90
13446;DHT22;6795;51.232;3.764;2023-09-12T09:36:48;20.50;99.90
13446;DHT22;6795;51.232;3.764;2023-09-12T09:39:17;20.60;99.90
13446;DHT22;6795;51.232;3.764;2023-09-12T09:41:47;20.90;99.90
13446;DHT22;6795;51.232;3.764;2023-09-12T09:44:16;21.20;99.90
13446;DHT22;6795;51.232;3.764;2023-09-12T09:46:45;20.90;99.90
13446;DHT22;6795;51.232;3.764;2023-09-12T09:49:14;21.00;99.90
13446;DHT22;6795;51.232;3.764;2023-09-12T09:51:46;21.10;99.90
13446;DHT22;6795;51.232;3.764;2023-09-12T09:54:15;21.00;99.90
13446;DHT22;6795;51.232;3.764;2023-09-12T09:56:46;21.10;99.90
13446;DHT22;6795;51.232;3.764;2023-09-12T09:59:16;21.10;99.90
13446;DHT22;6795;51.232;3.764;2023-09-12T10:01:45;21.40;99.90
13446;DHT22;6795;51.232;3.764;2023-09-12T10:04:15;21.60;99.90
13446;DHT22;6795;51.232;3.764;2023-09-12T10:06:46;21.90;99.90
13446;DHT22;6795;51.232;3.764;2023-09-12T10:09:16;22.10;99.90
13446;DHT22;6795;51.232;3.764;2023-09-12T10:11:46;22.30;99.90
13446;DHT22;6795;51.232;3.764;2023-09-12T10:14:19;22.30;99.90
13446;DHT22;6795;51.232;3.764;2023-09-12T10:16:48;22.40;99.90
13446;DHT22;6795;51.232;3.764;2023-09-12T10:19:21;22.20;99.90
13446;DHT22;6795;51.232;3.764;2023-09-12T10:22:02;21.80;99.90
13446;DHT22;6795;51.232;3.764;2023-09-12T10:24:33;21.50;99.90
13446;DHT22;6795;51.232;3.764;2023-09-12T10:27:04;21.40;99.90
13446;DHT22;6795;51.232;3.764;2023-09-12T10:29:34;21.30;99.90
13446;DHT22;6795;51.232;3.764;2023-09-12T10:32:04;21.40;99.90
13446;DHT22;6795;51.232;3.764;2023-09-12T10:34:32;21.30;99.90
13446;DHT22;6795;51.232;3.764;2023-09-12T10:37:06;21.40;99.90
13446;DHT22;6795;51.232;3.764;2023-09-12T10:39:35;21.50;99.90
13446;DHT22;6795;51.232;3.764;2023-09-12T10:42:04;21.60;99.90
13446;DHT22;6795;51.232;3.764;2023-09-12T10:44:34;21.80;99.90
13446;DHT22;6795;51.232;3.764;2023-09-12T10:47:04;22.00;99.90
13446;DHT22;6795;51.232;3.764;2023-09-12T10:49:33;22.40;99.90
13446;DHT22;6795;51.232;3.764;2023-09-12T10:52:03;22.50;99.90
13446;DHT22;6795;51.232;3.764;2023-09-12T10:54:42;22.50;99.90
13446;DHT22;6795;51.232;3.764;2023-09-12T10:57:11;22.30;99.90
13446;DHT22;6795;51.232;3.764;2023-09-12T11:00:10;22.70;99.90
13446;DHT22;6795;51.232;3.764;2023-09-12T11:02:40;23.00;99.90
13446;DHT22;6795;51.232;3.764;2023-09-12T11:05:36;23.30;99.90
13446;DHT22;6795;51.232;3.764;2023-09-12T11:08:05;23.50;99.90
13446;DHT22;6795;51.232;3.764;2023-09-12T11:10:35;23.90;99.90
13446;DHT22;6795;51.232;3.764;2023-09-12T11:13:04;24.20;99.90
13446;DHT22;6795;51.232;3.764;2023-09-12T11:15:32;24.20;99.90
13446;DHT22;6795;51.232;3.764;2023-09-12T11:18:03;24.20;99.90
13446;DHT22;6795;51.232;3.764;2023-09-12T11:20:52;24.30;99.90
13446;DHT22;6795;51.232;3.764;2023-09-12T11:23:26;24.40;99.90
13446;DHT22;6795;51.232;3.764;2023-09-12T11:26:05;24.70;99.90
13446;DHT22;6795;51.232;3.764;2023-09-12T11:28:34;24.60;99.90
13446;DHT22;6795;51.232;3.764;2023-09-12T11:31:03;24.50;99.90
13446;DHT22;6795;51.232;3.764;2023-09-12T11:33:32;24.60;99.90
13446;DHT22;6795;51.232;3.764;2023-09-12T11:36:02;24.60;99.90
13446;DHT22;6795;51.232;3.764;2023-09-12T11:38:32;24.60;99.90
13446;DHT22;6795;51.232;3.764;2023-09-12T11:41:01;24.60;99.90
13446;DHT22;6795;51.232;3.764;2023-09-12T11:43:30;24.70;99.90
13446;DHT22;6795;51.232;3.764;2023-09-12T11:46:01;24.70;99.90
13446;DHT22;6795;51.232;3.764;2023-09-12T11:48:30;24.90;99.90
13446;DHT22;6795;51.232;3.764;2023-09-12T11:50:59;25.00;99.90
13446;DHT22;6795;51.232;3.764;2023-09-12T11:53:28;25.10;99.90
13446;DHT22;6795;51.232;3.764;2023-09-12T11:56:00;25.30;99.90
13446;DHT22;6795;51.232;3.764;2023-09-12T11:58:30;25.20;99.90
13446;DHT22;6795;51.232;3.764;2023-09-12T12:00:59;25.20;99.90
13446;DHT22;6795;51.232;3.764;2023-09-12T12:03:28;25.10;99.90
13446;DHT22;6795;51.232;3.764;2023-09-12T12:05:57;25.30;99.90
13446;DHT22;6795;51.232;3.764;2023-09-12T12:08:26;25.70;99.90
13446;DHT22;6795;51.232;3.764;2023-09-12T12:10:59;26.00;99.90
13446;DHT22;6795;51.232;3.764;2023-09-12T12:13:29;26.20;99.90
13446;DHT22;6795;51.232;3.764;2023-09-12T12:15:58;26.00;99.90
13446;DHT22;6795;51.232;3.764;2023-09-12T12:18:27;25.90;99.90
13446;DHT22;6795;51.232;3.764;2023-09-12T12:20:56;25.70;99.90
13446;DHT22;6795;51.232;3.764;2023-09-12T12:23:25;25.50;99.90
13446;DHT22;6795;51.232;3.764;2023-09-12T12:25:54;25.50;99.90
13446;DHT22;6795;51.232;3.764;2023-09-12T12:28:22;25.70;99.90
13446;DHT22;6795;51.232;3.764;2023-09-12T12:30:54;26.20;99.90
13446;DHT22;6795;51.232;3.764;2023-09-12T12:33:22;26.70;99.90
13446;DHT22;6795;51.232;3.764;2023-09-12T12:36:11;26.70;99.90
13446;DHT22;6795;51.232;3.764;2023-09-12T12:38:39;25.80;99.90
13446;DHT22;6795;51.232;3.764;2023-09-12T12:41:25;25.90;99.90
13446;DHT22;6795;51.232;3.764;2023-09-12T12:44:06;25.40;99.90
13446;DHT22;6795;51.232;3.764;2023-09-12T12:46:48;25.40;99.90
13446;DHT22;6795;51.232;3.764;2023-09-12T12:49:17;25.50;99.90
13446;DHT22;6795;51.232;3.764;2023-09-12T12:51:46;25.50;99.90
13446;DHT22;6795;51.232;3.764;2023-09-12T12:54:14;25.30;99.90
13446;DHT22;6795;51.232;3.764;2023-09-12T12:56:43;25.30;99.90
13446;DHT22;6795;51.232;3.764;2023-09-12T12:59:12;25.20;99.90
13446;DHT22;6795;51.232;3.764;2023-09-12T13:01:44;24.80;99.90
13446;DHT22;6795;51.232;3.764;2023-09-12T13:04:13;24.60;99.90
13446;DHT22;6795;51.232;3.764;2023-09-12T13:06:43;24.60;99.90
13446;DHT22;6795;51.232;3.764;2023-09-12T13:09:12;24.60;99.90
13446;DHT22;6795;51.232;3.764;2023-09-12T13:11:40;25.20;99.90
13446;DHT22;6795;51.232;3.764;2023-09-12T13:14:09;25.60;99.90
13446;DHT22;6795;51.232;3.764;2023-09-12T13:16:39;25.70;99.90
13446;DHT22;6795;51.232;3.764;2023-09-12T13:19:10;25.60;99.90
13446;DHT22;6795;51.232;3.764;2023-09-12T13:21:40;25.50;99.90
13446;DHT22;6795;51.232;3.764;2023-09-12T13:24:09;25.60;99.90
13446;DHT22;6795;51.232;3.764;2023-09-12T13:26:38;25.70;99.90
13446;DHT22;6795;51.232;3.764;2023-09-12T13:29:07;26.20;99.90
13446;DHT22;6795;51.232;3.764;2023-09-12T13:31:36;26.60;99.90
13446;DHT22;6795;51.232;3.764;2023-09-12T13:34:04;27.10;99.90
13446;DHT22;6795;51.232;3.764;2023-09-12T13:36:34;27.70;99.90
13446;DHT22;6795;51.232;3.764;2023-09-12T13:39:03;28.20;99.90
13446;DHT22;6795;51.232;3.764;2023-09-12T13:41:33;27.60;99.90
13446;DHT22;6795;51.232;3.764;2023-09-12T13:44:02;27.60;99.90
13446;DHT22;6795;51.232;3.764;2023-09-12T13:46:30;27.60;99.90
13446;DHT22;6795;51.232;3.764;2023-09-12T13:48:59;27.90;99.90
13446;DHT22;6795;51.232;3.764;2023-09-12T13:51:30;28.20;99.90
13446;DHT22;6795;51.232;3.764;2023-09-12T13:54:00;28.20;99.90
13446;DHT22;6795;51.232;3.764;2023-09-12T13:56:29;27.60;99.90
13446;DHT22;6795;51.232;3.764;2023-09-12T13:58:59;26.80;99.90
13446;DHT22;6795;51.232;3.764;2023-09-12T14:01:27;26.40;99.90
13446;DHT22;6795;51.232;3.764;2023-09-12T14:04:01;26.10;99.90
13446;DHT22;6795;51.232;3.764;2023-09-12T14:06:33;25.90;99.90
13446;DHT22;6795;51.232;3.764;2023-09-12T14:09:03;25.90;99.90
13446;DHT22;6795;51.232;3.764;2023-09-12T14:11:32;26.00;99.90
13446;DHT22;6795;51.232;3.764;2023-09-12T14:14:03;25.80;99.90
13446;DHT22;6795;51.232;3.764;2023-09-12T14:16:34;26.20;99.90
13446;DHT22;6795;51.232;3.764;2023-09-12T14:19:03;26.00;99.90
13446;DHT22;6795;51.232;3.764;2023-09-12T14:21:33;26.20;99.90
13446;DHT22;6795;51.232;3.764;2023-09-12T14:24:04;26.00;99.90
13446;DHT22;6795;51.232;3.764;2023-09-12T14:26:33;26.00;99.90
13446;DHT22;6795;51.232;3.764;2023-09-12T14:29:02;26.20;99.90
13446;DHT22;6795;51.232;3.764;2023-09-12T14:31:33;25.80;99.90
13446;DHT22;6795;51.232;3.764;2023-09-12T14:34:04;25.60;99.90
13446;DHT22;6795;51.232;3.764;2023-09-12T14:36:34;25.40;99.90
13446;DHT22;6795;51.232;3.764;2023-09-12T14:39:04;25.40;99.90
13446;DHT22;6795;51.232;3.764;2023-09-12T14:41:33;25.10;99.90
13446;DHT22;6795;51.232;3.764;2023-09-12T14:44:02;24.80;99.90
13446;DHT22;6795;51.232;3.764;2023-09-12T14:46:32;24.60;99.90
13446;DHT22;6795;51.232;3.764;2023-09-12T14:49:01;24.40;99.90
13446;DHT22;6795;51.232;3.764;2023-09-12T14:51:29;24.30;99.90
13446;DHT22;6795;51.232;3.764;2023-09-12T14:54:01;24.30;99.90
13446;DHT22;6795;51.232;3.764;2023-09-12T14:56:32;24.10;99.90
13446;DHT22;6795;51.232;3.764;2023-09-12T14:59:00;23.90;99.90
13446;DHT22;6795;51.232;3.764;2023-09-12T15:01:29;23.80;99.90
13446;DHT22;6795;51.232;3.764;2023-09-12T15:03:58;23.80;99.90
13446;DHT22;6795;51.232;3.764;2023-09-12T15:06:28;23.90;99.90
13446;DHT22;6795;51.232;3.764;2023-09-12T15:09:00;24.10;99.90
13446;DHT22;6795;51.232;3.764;2023-09-12T15:11:30;24.10;99.90
13446;DHT22;6795;51.232;3.764;2023-09-12T15:14:00;24.10;99.90
13446;DHT22;6795;51.232;3.764;2023-09-12T15:16:28;23.90;99.90
13446;DHT22;6795;51.232;3.764;2023-09-12T15:19:02;23.70;99.90
13446;DHT22;6795;51.232;3.764;2023-09-12T15:21:31;23.60;99.90
13446;DHT22;6795;51.232;3.764;2023-09-12T15:23:59;23.70;99.90
13446;DHT22;6795;51.232;3.764;2023-09-12T15:26:28;23.60;99.90
13446;DHT22;6795;51.232;3.764;2023-09-12T15:28:58;23.60;99.90
13446;DHT22;6795;51.232;3.764;2023-09-12T15:31:31;23.60;99.90
13446;DHT22;6795;51.232;3.764;2023-09-12T15:33:59;23.70;99.90
13446;DHT22;6795;51.232;3.764;2023-09-12T15:36:28;23.60;99.90
13446;DHT22;6795;51.232;3.764;2023-09-12T15:38:56;23.50;99.90
13446;DHT22;6795;51.232;3.764;2023-09-12T15:41:25;23.40;99.90
13446;DHT22;6795;51.232;3.764;2023-09-12T15:43:53;23.60;99.90
13446;DHT22;6795;51.232;3.764;2023-09-12T15:46:43;23.60;99.90
13446;DHT22;6795;51.232;3.764;2023-09-12T15:49:11;23.50;99.90
13446;DHT22;6795;51.232;3.764;2023-09-12T15:51:40;23.60;99.90
13446;DHT22;6795;51.232;3.764;2023-09-12T15:54:10;23.50;99.90
13446;DHT22;6795;51.232;3.764;2023-09-12T15:56:42;23.50;99.90
13446;DHT22;6795;51.232;3.764;2023-09-12T15:59:12;23.40;99.90
13446;DHT22;6795;51.232;3.764;2023-09-12T16:01:40;23.40;99.90